createdAt,value
2017-03-31T00:00:56.797Z,97.71
2017-03-31T00:01:56.822Z,97.99
2017-03-31T00:02:56.842Z,97.42
2017-03-31T00:04:56.889Z,98.27
2017-03-31T00:05:56.910Z,98.08
2017-03-31T00:06:56.933Z,98.08
2017-03-31T00:07:56.957Z,97.61
2017-03-31T00:08:56.976Z,98.18
2017-03-31T00:09:57.000Z,98.08
2017-03-31T00:10:57.022Z,98.08
2017-03-31T00:11:57.044Z,97.89
2017-03-31T00:12:57.070Z,98.08
2017-03-31T00:13:57.091Z,98.18
2017-03-31T00:14:57.114Z,98.08
2017-03-31T00:15:57.137Z,97.42
2017-03-31T00:16:57.158Z,97.89
2017-03-31T00:17:57.180Z,98.37
2017-03-31T00:18:57.206Z,97.99
2017-03-31T00:21:57.272Z,98.08
2017-03-31T00:22:57.296Z,97.71
2017-03-31T00:24:11.932Z,97.8
2017-03-31T00:24:57.338Z,97.51
2017-03-31T00:25:57.058Z,97.89
2017-03-31T00:26:57.385Z,97.8
2017-03-31T00:27:57.406Z,97.89
2017-03-31T00:28:57.429Z,97.99
2017-03-31T00:29:57.452Z,98.27
2017-03-31T00:30:57.473Z,98.18
2017-03-31T00:31:57.496Z,98.27
2017-03-31T00:32:57.523Z,98.18
2017-03-31T00:33:57.540Z,98.56
2017-03-31T00:34:57.562Z,98.37
2017-03-31T00:35:57.593Z,98.9
2017-03-31T00:36:57.609Z,98.7
2017-03-31T00:37:57.632Z,98.42
2017-03-31T00:38:57.654Z,98.42
2017-03-31T00:40:12.291Z,98.7
2017-03-31T00:40:57.698Z,98.51
2017-03-31T00:41:57.721Z,98.61
2017-03-31T00:42:57.742Z,99.08
2017-03-31T00:43:57.767Z,98.9
2017-03-31T00:44:57.786Z,98.61
2017-03-31T00:45:57.810Z,99.46
2017-03-31T00:46:57.839Z,98.9
2017-03-31T00:47:57.854Z,99.37
2017-03-31T00:48:57.877Z,99.37
2017-03-31T00:49:57.594Z,99.08
2017-03-31T00:51:57.944Z,98.9
2017-03-31T00:52:57.968Z,98.9
2017-03-31T00:53:57.987Z,98.9
2017-03-31T00:54:58.010Z,99.27
2017-03-31T00:56:12.647Z,99.37
2017-03-31T00:56:58.055Z,99.46
2017-03-31T00:57:58.078Z,99.27
2017-03-31T00:58:58.105Z,99.46
2017-03-31T00:59:58.121Z,99.46
2017-03-31T01:00:58.143Z,99.46
2017-03-31T01:01:58.167Z,99.27
2017-03-31T01:02:58.190Z,99.08
2017-03-31T01:03:58.212Z,98.99
2017-03-31T01:04:58.237Z,99.08
2017-03-31T01:05:58.256Z,99.37
2017-03-31T01:06:58.278Z,99.66
2017-03-31T01:09:58.345Z,99.99
2017-03-31T01:10:58.367Z,99.85
2017-03-31T01:12:13.005Z,99.99
2017-03-31T01:12:58.423Z,99.99
2017-03-31T01:13:58.446Z,99.99
2017-03-31T01:14:58.465Z,99.99
2017-03-31T01:15:58.479Z,99.99
2017-03-31T01:16:58.512Z,99.99
2017-03-31T01:17:58.529Z,99.99
2017-03-31T01:18:58.551Z,99.99
2017-03-31T01:19:58.576Z,99.99
2017-03-31T01:20:58.590Z,99.99
2017-03-31T01:21:58.610Z,99.99
2017-03-31T01:22:58.331Z,99.99
2017-03-31T01:24:58.730Z,99.99
2017-03-31T01:25:58.699Z,99.99
2017-03-31T01:27:13.339Z,99.99
2017-03-31T01:27:58.749Z,99.99
2017-03-31T01:28:58.768Z,99.99
2017-03-31T01:29:58.790Z,99.99
2017-03-31T01:30:58.810Z,99.99
2017-03-31T01:31:58.835Z,99.99
2017-03-31T01:32:58.855Z,99.99
2017-03-31T01:33:58.877Z,99.99
2017-03-31T01:34:58.902Z,99.99
2017-03-31T01:35:58.922Z,99.99
2017-03-31T01:36:58.946Z,99.99
2017-03-31T01:37:58.965Z,99.99
2017-03-31T01:38:58.993Z,99.99
2017-03-31T01:39:59.010Z,99.99
2017-03-31T01:40:59.033Z,99.99
2017-03-31T01:41:59.053Z,99.99
2017-03-31T01:42:59.079Z,99.99
2017-03-31T01:43:59.101Z,99.99
2017-03-31T01:44:59.129Z,99.99
2017-03-31T01:45:59.142Z,99.99
2017-03-31T01:46:59.166Z,99.99
2017-03-31T01:47:59.187Z,99.99
2017-03-31T01:48:59.210Z,99.99
2017-03-31T01:49:59.234Z,99.99
2017-03-31T01:50:59.254Z,99.99
2017-03-31T01:51:59.274Z,99.99
2017-03-31T01:52:59.334Z,99.99
2017-03-31T01:54:59.342Z,99.99
2017-03-31T01:55:59.377Z,99.99
2017-03-31T01:56:59.387Z,99.99
2017-03-31T01:57:59.409Z,99.99
2017-03-31T01:59:14.047Z,99.99
2017-03-31T01:59:59.452Z,99.99
2017-03-31T02:00:59.474Z,99.99
2017-03-31T02:01:59.498Z,99.99
2017-03-31T02:02:59.521Z,99.99
2017-03-31T02:03:59.539Z,99.99
2017-03-31T02:04:59.562Z,99.99
2017-03-31T02:05:59.585Z,99.99
2017-03-31T02:06:59.604Z,99.99
2017-03-31T02:07:59.627Z,99.99
2017-03-31T02:08:59.648Z,99.99
2017-03-31T02:11:59.716Z,99.99
2017-03-31T02:12:59.737Z,99.99
2017-03-31T02:13:59.757Z,99.99
2017-03-31T02:15:14.396Z,99.99
2017-03-31T02:15:59.801Z,99.99
2017-03-31T02:16:59.824Z,99.99
2017-03-31T02:17:59.845Z,99.99
2017-03-31T02:18:59.866Z,99.99
2017-03-31T02:19:59.889Z,99.99
2017-03-31T02:20:59.910Z,99.99
2017-03-31T02:21:59.934Z,99.99
2017-03-31T02:22:59.955Z,99.99
2017-03-31T02:26:00.019Z,99.99
2017-03-31T02:27:00.042Z,99.99
2017-03-31T02:28:00.063Z,99.99
2017-03-31T02:29:00.084Z,99.99
2017-03-31T02:30:00.109Z,99.99
2017-03-31T02:31:14.745Z,99.99
2017-03-31T02:32:00.152Z,99.99
2017-03-31T02:33:00.174Z,99.99
2017-03-31T02:34:00.195Z,99.99
2017-03-31T02:35:00.215Z,99.99
2017-03-31T02:36:00.237Z,99.99
2017-03-31T02:37:00.256Z,99.99
2017-03-31T02:38:00.281Z,99.99
2017-03-31T02:39:00.305Z,99.99
2017-03-31T02:40:00.321Z,99.99
2017-03-31T02:41:00.351Z,99.99
2017-03-31T02:42:00.364Z,99.99
2017-03-31T02:43:00.388Z,99.99
2017-03-31T02:45:00.431Z,99.99
2017-03-31T02:46:00.449Z,99.99
2017-03-31T02:47:15.090Z,99.99
2017-03-31T02:48:00.496Z,99.99
2017-03-31T02:49:00.518Z,99.99
2017-03-31T02:50:00.539Z,99.99
2017-03-31T02:51:00.560Z,99.99
2017-03-31T02:52:00.583Z,99.99
2017-03-31T02:53:00.601Z,99.99
2017-03-31T02:54:00.624Z,99.99
2017-03-31T02:55:00.643Z,99.99
2017-03-31T02:56:00.668Z,99.99
2017-03-31T02:57:00.686Z,99.99
2017-03-31T02:58:00.708Z,99.99
2017-03-31T02:59:00.731Z,99.99
2017-03-31T03:00:00.751Z,99.99
2017-03-31T03:01:00.776Z,99.99
2017-03-31T03:02:15.411Z,99.99
2017-03-31T03:03:00.819Z,99.99
2017-03-31T03:04:00.838Z,99.99
2017-03-31T03:05:00.862Z,99.99
2017-03-31T03:06:00.880Z,99.99
2017-03-31T03:07:00.906Z,99.99
2017-03-31T03:08:00.923Z,99.99
2017-03-31T03:09:00.945Z,99.99
2017-03-31T03:10:00.965Z,99.99
2017-03-31T03:11:00.989Z,99.99
2017-03-31T03:12:01.010Z,99.99
2017-03-31T03:14:01.050Z,99.99
2017-03-31T03:15:01.273Z,99.99
2017-03-31T03:16:01.094Z,99.99
2017-03-31T03:17:01.117Z,99.99
2017-03-31T03:18:01.287Z,99.99
2017-03-31T03:19:01.157Z,99.99
2017-03-31T03:20:01.178Z,99.99
2017-03-31T03:21:01.201Z,99.99
2017-03-31T03:22:01.223Z,99.99
2017-03-31T03:23:01.241Z,99.99
2017-03-31T03:24:01.262Z,99.99
2017-03-31T03:25:01.285Z,99.99
2017-03-31T03:26:01.307Z,99.99
2017-03-31T03:27:01.326Z,99.99
2017-03-31T03:28:01.349Z,99.99
2017-03-31T03:29:01.369Z,99.99
2017-03-31T03:31:01.412Z,99.99
2017-03-31T03:32:01.432Z,99.99
2017-03-31T03:33:01.453Z,99.99
2017-03-31T03:34:16.090Z,99.99
2017-03-31T03:35:01.497Z,99.99
2017-03-31T03:36:01.517Z,99.99
2017-03-31T03:37:01.543Z,99.99
2017-03-31T03:38:01.559Z,99.99
2017-03-31T03:39:01.580Z,99.99
2017-03-31T03:40:01.602Z,99.99
2017-03-31T03:41:01.623Z,99.99
2017-03-31T03:42:01.645Z,99.99
2017-03-31T03:43:01.667Z,99.99
2017-03-31T03:44:01.686Z,99.99
2017-03-31T03:45:01.708Z,99.99
2017-03-31T03:46:01.733Z,99.99
2017-03-31T03:47:01.751Z,99.99
2017-03-31T03:48:01.770Z,99.99
2017-03-31T03:49:01.793Z,99.99
2017-03-31T03:50:16.429Z,99.99
2017-03-31T03:51:01.530Z,99.99
2017-03-31T03:52:01.550Z,99.99
2017-03-31T03:53:01.877Z,99.99
2017-03-31T03:54:01.593Z,99.99
2017-03-31T03:55:01.917Z,99.99
2017-03-31T03:56:01.637Z,99.99
2017-03-31T03:57:01.658Z,99.99
2017-03-31T03:58:01.981Z,99.99
2017-03-31T03:59:02.002Z,99.99
2017-03-31T04:00:02.023Z,99.99
2017-03-31T04:01:02.045Z,99.99
2017-03-31T04:02:02.067Z,99.99
2017-03-31T04:03:02.086Z,99.99
2017-03-31T04:04:02.108Z,99.99
2017-03-31T04:05:01.824Z,99.99
2017-03-31T04:06:16.765Z,99.99
2017-03-31T04:07:02.173Z,99.99
2017-03-31T04:08:02.195Z,99.99
2017-03-31T04:09:02.216Z,99.99
2017-03-31T04:10:02.235Z,99.99
2017-03-31T04:11:02.253Z,99.99
2017-03-31T04:12:02.275Z,99.99
2017-03-31T04:13:02.304Z,99.99
2017-03-31T04:14:02.316Z,99.99
2017-03-31T04:15:02.340Z,99.99
2017-03-31T04:16:02.359Z,99.99
2017-03-31T04:17:02.379Z,99.99
2017-03-31T04:18:02.406Z,99.99
2017-03-31T04:19:02.424Z,99.99
2017-03-31T04:20:02.448Z,99.99
2017-03-31T04:21:02.468Z,99.99
2017-03-31T04:22:17.101Z,99.99
2017-03-31T04:23:02.505Z,99.99
2017-03-31T04:24:02.527Z,99.99
2017-03-31T04:25:02.548Z,99.99
2017-03-31T04:26:02.568Z,99.99
2017-03-31T04:27:02.590Z,99.99
2017-03-31T04:28:02.609Z,99.99
2017-03-31T04:29:02.632Z,99.99
2017-03-31T04:30:02.655Z,99.99
2017-03-31T04:31:02.674Z,99.99
2017-03-31T04:32:02.694Z,99.99
2017-03-31T04:33:02.721Z,99.99
2017-03-31T04:35:02.755Z,99.99
2017-03-31T04:36:02.781Z,99.99
2017-03-31T04:37:17.415Z,99.99
2017-03-31T04:38:02.820Z,99.99
2017-03-31T04:39:02.839Z,99.99
2017-03-31T04:40:02.862Z,99.99
2017-03-31T04:41:02.882Z,99.99
2017-03-31T04:42:02.904Z,99.99
2017-03-31T04:43:02.929Z,99.99
2017-03-31T04:44:02.961Z,99.99
2017-03-31T04:45:02.964Z,99.99
2017-03-31T04:46:02.985Z,99.99
2017-03-31T04:47:03.059Z,99.99
2017-03-31T04:48:03.035Z,99.99
2017-03-31T04:49:03.049Z,99.99
2017-03-31T04:50:03.068Z,99.99
2017-03-31T04:51:03.092Z,99.99
2017-03-31T04:52:03.115Z,99.99
2017-03-31T04:53:03.138Z,99.99
2017-03-31T04:54:02.850Z,99.99
2017-03-31T04:55:02.871Z,99.99
2017-03-31T04:56:03.196Z,99.99
2017-03-31T04:57:03.216Z,99.99
2017-03-31T04:58:03.238Z,99.99
2017-03-31T04:59:02.956Z,99.99
2017-03-31T05:00:03.277Z,99.99
2017-03-31T05:02:03.327Z,99.99
2017-03-31T05:03:03.340Z,99.99
2017-03-31T05:04:03.369Z,99.99
2017-03-31T05:05:03.384Z,99.99
2017-03-31T05:06:03.411Z,99.99
2017-03-31T05:07:03.428Z,99.99
2017-03-31T05:08:03.445Z,99.99
2017-03-31T05:09:18.083Z,99.99
2017-03-31T05:10:03.488Z,99.99
2017-03-31T05:11:03.509Z,99.99
2017-03-31T05:12:03.532Z,99.99
2017-03-31T05:13:03.551Z,99.99
2017-03-31T05:14:03.573Z,99.99
2017-03-31T05:15:03.289Z,99.99
2017-03-31T05:16:03.613Z,99.99
2017-03-31T05:17:03.636Z,99.99
2017-03-31T05:18:03.656Z,99.99
2017-03-31T05:20:03.397Z,99.99
2017-03-31T05:21:03.418Z,99.99
2017-03-31T05:22:03.741Z,99.99
2017-03-31T05:23:03.761Z,99.99
2017-03-31T05:24:03.786Z,99.99
2017-03-31T05:25:18.422Z,99.99
2017-03-31T05:26:03.524Z,99.99
2017-03-31T05:27:03.848Z,99.99
2017-03-31T05:28:03.567Z,99.99
2017-03-31T05:29:03.890Z,99.99
2017-03-31T05:30:03.913Z,99.99
2017-03-31T05:31:03.936Z,99.99
2017-03-31T05:32:03.960Z,99.99
2017-03-31T05:33:03.980Z,99.99
2017-03-31T05:34:04.002Z,99.99
2017-03-31T05:35:04.021Z,99.99
2017-03-31T05:36:04.053Z,99.99
2017-03-31T05:38:04.089Z,99.99
2017-03-31T05:39:04.110Z,99.99
2017-03-31T05:40:04.133Z,99.99
2017-03-31T05:41:18.774Z,99.99
2017-03-31T05:42:03.875Z,99.99
2017-03-31T05:43:04.201Z,99.99
2017-03-31T05:44:04.222Z,99.99
2017-03-31T05:45:04.270Z,99.99
2017-03-31T05:46:03.966Z,99.99
2017-03-31T05:47:04.291Z,99.99
2017-03-31T05:48:04.316Z,99.99
2017-03-31T05:49:04.032Z,99.99
2017-03-31T05:50:04.360Z,99.99
2017-03-31T05:51:04.386Z,99.99
2017-03-31T05:52:04.404Z,99.99
2017-03-31T05:53:04.427Z,99.99
2017-03-31T05:54:04.450Z,99.99
2017-03-31T05:55:04.477Z,99.99
2017-03-31T05:56:04.498Z,99.99
2017-03-31T05:57:19.136Z,99.99
2017-03-31T05:58:04.544Z,99.66
2017-03-31T05:59:04.568Z,99.46
2017-03-31T06:00:04.595Z,98.42
2017-03-31T06:01:04.612Z,97.51
2017-03-31T06:02:04.638Z,97.03
2017-03-31T06:03:04.661Z,96.17
2017-03-31T06:04:04.686Z,95.32
2017-03-31T06:05:04.713Z,94.93
2017-03-31T06:06:04.735Z,94.7
2017-03-31T06:07:04.759Z,94.6
2017-03-31T06:08:04.782Z,94.41
2017-03-31T06:10:04.834Z,93.26
2017-03-31T06:11:04.857Z,92.93
2017-03-31T06:12:19.498Z,91.88
2017-03-31T06:13:04.908Z,90.92
2017-03-31T06:14:04.933Z,90.49
2017-03-31T06:15:04.959Z,89.25
2017-03-31T06:16:04.988Z,88.29
2017-03-31T06:18:05.035Z,87.29
2017-03-31T06:19:05.062Z,86.23
2017-03-31T06:20:04.782Z,86.14
2017-03-31T06:21:05.112Z,85.85
2017-03-31T06:23:05.166Z,84.94
2017-03-31T06:24:05.193Z,83.69
2017-03-31T06:26:05.250Z,83.83
2017-03-31T06:27:05.279Z,82.59
2017-03-31T06:28:05.306Z,82.2
2017-03-31T06:29:05.029Z,81.63
2017-03-31T06:30:05.055Z,81.86
2017-03-31T06:31:05.388Z,81.67
2017-03-31T06:32:05.419Z,80.9
2017-03-31T06:33:05.444Z,80.24
2017-03-31T06:34:05.474Z,79.95
2017-03-31T06:35:05.502Z,80.33
2017-03-31T06:36:05.531Z,79.95
2017-03-31T06:37:05.562Z,79.85
2017-03-31T06:38:05.589Z,80.04
2017-03-31T06:39:05.618Z,78.07
2017-03-31T06:40:05.651Z,77.88
2017-03-31T06:42:05.405Z,76.81
2017-03-31T06:43:05.737Z,76.29
2017-03-31T06:44:20.386Z,75.27
2017-03-31T06:45:05.496Z,75.02
2017-03-31T06:46:05.830Z,74.26
2017-03-31T06:47:05.859Z,72.91
2017-03-31T06:48:05.889Z,71.98
2017-03-31T06:49:05.931Z,72.08
2017-03-31T06:50:05.953Z,71.35
2017-03-31T06:51:05.991Z,72.37
2017-03-31T06:52:06.016Z,70.87
2017-03-31T06:53:05.744Z,69.81
2017-03-31T06:54:06.078Z,69.56
2017-03-31T06:55:06.112Z,69.46
2017-03-31T06:57:05.874Z,67.74
2017-03-31T06:58:06.208Z,67.19
2017-03-31T06:59:06.241Z,66.91
2017-03-31T07:00:20.891Z,66.14
2017-03-31T07:01:06.308Z,66.14
2017-03-31T07:02:06.034Z,66.81
2017-03-31T07:03:06.066Z,66.42
2017-03-31T07:04:06.405Z,65.66
2017-03-31T07:05:06.438Z,65.08
2017-03-31T07:06:06.521Z,65.3
2017-03-31T07:07:06.505Z,65.01
2017-03-31T07:08:06.538Z,64.76
2017-03-31T07:09:06.573Z,64.66
2017-03-31T07:11:06.643Z,63.6
2017-03-31T07:12:06.671Z,63.79
2017-03-31T07:13:06.707Z,63.6
2017-03-31T07:14:06.740Z,63.51
2017-03-31T07:15:06.776Z,63.31
2017-03-31T07:16:21.424Z,62.64
2017-03-31T07:17:06.839Z,62.57
2017-03-31T07:18:06.874Z,61.61
2017-03-31T07:19:06.911Z,62.57
2017-03-31T07:20:06.943Z,61.13
2017-03-31T07:21:06.976Z,60.75
2017-03-31T07:22:07.014Z,60.77
2017-03-31T07:23:07.047Z,60.58
2017-03-31T07:24:07.078Z,60.97
2017-03-31T07:25:07.113Z,59.55
2017-03-31T07:28:07.217Z,59.17
2017-03-31T07:29:07.286Z,59.07
2017-03-31T07:30:07.287Z,57.94
2017-03-31T07:31:07.318Z,57.65
2017-03-31T07:32:21.973Z,57.46
2017-03-31T07:33:07.388Z,56.79
2017-03-31T07:34:07.430Z,56.91
2017-03-31T07:35:07.458Z,56.98
2017-03-31T07:36:07.492Z,55.82
2017-03-31T07:37:07.524Z,55.85
2017-03-31T07:38:07.557Z,56.21
2017-03-31T07:39:07.593Z,57.43
2017-03-31T07:40:07.628Z,56.47
2017-03-31T07:41:07.663Z,55.34
2017-03-31T07:42:07.698Z,56.69
2017-03-31T07:43:07.732Z,55.82
2017-03-31T07:44:07.461Z,56.49
2017-03-31T07:45:07.799Z,56.33
2017-03-31T07:46:07.838Z,54.98
2017-03-31T07:47:22.486Z,53.75
2017-03-31T07:48:07.903Z,53.85
2017-03-31T07:49:07.937Z,53.11
2017-03-31T07:50:07.977Z,53.75
2017-03-31T07:51:08.004Z,53.3
2017-03-31T07:52:08.040Z,53.56
2017-03-31T07:53:08.075Z,53.17
2017-03-31T07:54:08.110Z,53.66
2017-03-31T07:55:08.142Z,53.63
2017-03-31T07:56:08.178Z,53.66
2017-03-31T07:57:08.210Z,53.66
2017-03-31T07:59:08.281Z,53.66
2017-03-31T08:01:08.346Z,52.33
2017-03-31T08:02:08.382Z,51.65
2017-03-31T08:03:08.416Z,51.49
2017-03-31T08:04:08.447Z,52.07
2017-03-31T08:05:08.522Z,52.33
2017-03-31T08:06:08.516Z,51.49
2017-03-31T08:07:08.551Z,51.29
2017-03-31T08:08:08.588Z,50.74
2017-03-31T08:09:08.617Z,50.55
2017-03-31T08:10:08.653Z,49.9
2017-03-31T08:11:08.685Z,49.99
2017-03-31T08:12:08.721Z,50.26
2017-03-31T08:13:08.754Z,49.97
2017-03-31T08:15:09.123Z,50.26
2017-03-31T08:16:08.860Z,49.51
2017-03-31T08:17:08.900Z,49.12
2017-03-31T08:18:08.926Z,48.95
2017-03-31T08:19:23.580Z,48.25
2017-03-31T08:20:08.995Z,48.83
2017-03-31T08:21:09.028Z,49.12
2017-03-31T08:22:09.062Z,48.35
2017-03-31T08:23:09.097Z,48.44
2017-03-31T08:24:09.129Z,48.54
2017-03-31T08:25:09.162Z,49.32
2017-03-31T08:26:09.200Z,48.74
2017-03-31T08:27:09.232Z,49.32
2017-03-31T08:29:09.298Z,48.54
2017-03-31T08:31:09.366Z,47.79
2017-03-31T08:32:09.400Z,48.47
2017-03-31T08:33:09.432Z,47.04
2017-03-31T08:34:09.161Z,46.75
2017-03-31T08:35:24.118Z,47.14
2017-03-31T08:36:09.228Z,46.84
2017-03-31T08:37:09.565Z,46.84
2017-03-31T08:38:09.600Z,46.66
2017-03-31T08:39:09.633Z,46.26
2017-03-31T08:40:09.673Z,46.84
2017-03-31T08:41:09.698Z,47.43
2017-03-31T08:42:09.732Z,46.44
2017-03-31T08:43:09.768Z,46.25
2017-03-31T08:44:09.807Z,46.34
2017-03-31T08:45:09.832Z,47.21
2017-03-31T08:46:09.864Z,46.25
2017-03-31T08:47:09.901Z,47.69
2017-03-31T08:48:09.932Z,47.11
2017-03-31T08:49:09.962Z,46.84
2017-03-31T08:50:10.049Z,47.11
2017-03-31T08:51:24.646Z,47.21
2017-03-31T08:52:10.062Z,46.83
2017-03-31T08:53:10.097Z,47.69
2017-03-31T08:54:10.130Z,47.99
2017-03-31T08:55:10.160Z,47.31
2017-03-31T08:56:10.193Z,46.84
2017-03-31T08:57:10.229Z,46.26
2017-03-31T08:58:10.260Z,46.09
2017-03-31T08:59:10.291Z,45.98
2017-03-31T09:01:10.358Z,46.26
2017-03-31T09:02:10.389Z,45.88
2017-03-31T09:03:10.423Z,45.3
2017-03-31T09:04:10.457Z,45.42
2017-03-31T09:05:10.490Z,46.08
2017-03-31T09:06:10.521Z,45.88
2017-03-31T09:07:25.173Z,46.46
2017-03-31T09:08:10.586Z,46.39
2017-03-31T09:09:10.622Z,46.48
2017-03-31T09:10:10.350Z,45.13
2017-03-31T09:11:10.683Z,44.76
2017-03-31T09:12:10.719Z,45.73
2017-03-31T09:13:10.750Z,44.37
2017-03-31T09:14:10.786Z,44.18
2017-03-31T09:15:10.817Z,44.47
2017-03-31T09:17:10.879Z,45.34
2017-03-31T09:18:10.915Z,43.96
2017-03-31T09:20:10.979Z,44.57
2017-03-31T09:21:11.015Z,44.96
2017-03-31T09:22:25.662Z,45.81
2017-03-31T09:23:11.080Z,46.09
2017-03-31T09:24:11.110Z,45.61
2017-03-31T09:25:11.143Z,46.39
2017-03-31T09:26:11.175Z,46.77
2017-03-31T09:27:10.904Z,46.97
2017-03-31T09:28:10.936Z,46.48
2017-03-31T09:29:11.271Z,46.48
2017-03-31T09:30:11.304Z,47.04
2017-03-31T09:31:11.335Z,46.56
2017-03-31T09:32:11.372Z,46.94
2017-03-31T09:33:11.400Z,46.48
2017-03-31T09:35:11.465Z,46.48
2017-03-31T09:36:11.500Z,47.72
2017-03-31T09:37:11.527Z,47.52
2017-03-31T09:38:11.563Z,46.75
2017-03-31T09:39:11.591Z,46
2017-03-31T09:40:11.625Z,46.77
2017-03-31T09:41:11.658Z,46.67
2017-03-31T09:42:11.687Z,47.64
2017-03-31T09:43:11.723Z,46.97
2017-03-31T09:44:11.754Z,46.58
2017-03-31T09:45:11.781Z,46.87
2017-03-31T09:46:11.813Z,46.67
2017-03-31T09:47:11.846Z,47.24
2017-03-31T09:49:11.908Z,47.24
2017-03-31T09:50:11.942Z,47.62
2017-03-31T09:51:12.004Z,47.33
2017-03-31T09:52:11.704Z,46.56
2017-03-31T09:53:12.039Z,47.26
2017-03-31T09:54:26.684Z,46.94
2017-03-31T09:55:12.098Z,46.84
2017-03-31T09:56:12.129Z,48.18
2017-03-31T09:57:12.164Z,48.66
2017-03-31T09:58:12.189Z,48.18
2017-03-31T09:59:11.919Z,48.37
2017-03-31T10:00:12.254Z,47.69
2017-03-31T10:01:12.284Z,48.11
2017-03-31T10:02:12.014Z,47.62
2017-03-31T10:03:12.347Z,47.33
2017-03-31T10:04:12.378Z,48.2
2017-03-31T10:05:12.438Z,47.89
2017-03-31T10:06:12.443Z,47.6
2017-03-31T10:07:12.473Z,47.89
2017-03-31T10:08:12.505Z,48.59
2017-03-31T10:09:12.535Z,48.57
2017-03-31T10:10:27.181Z,48.11
2017-03-31T10:11:12.596Z,47.62
2017-03-31T10:12:12.627Z,48.13
2017-03-31T10:13:12.658Z,47.26
2017-03-31T10:14:12.689Z,46.58
2017-03-31T10:15:12.719Z,46.39
2017-03-31T10:16:12.754Z,47.33
2017-03-31T10:17:12.779Z,47.91
2017-03-31T10:18:12.812Z,48.57
2017-03-31T10:19:12.839Z,48.76
2017-03-31T10:20:12.878Z,48.18
2017-03-31T10:22:12.939Z,47.79
2017-03-31T10:23:12.967Z,48.47
2017-03-31T10:24:12.999Z,49.15
2017-03-31T10:25:13.025Z,49.24
2017-03-31T10:26:27.687Z,48.47
2017-03-31T10:27:13.099Z,47.99
2017-03-31T10:28:13.165Z,49.05
2017-03-31T10:29:13.148Z,48.57
2017-03-31T10:30:13.180Z,46.92
2017-03-31T10:31:13.212Z,47.89
2017-03-31T10:32:13.249Z,47.99
2017-03-31T10:33:13.289Z,47.91
2017-03-31T10:34:13.328Z,47.31
2017-03-31T10:35:13.350Z,47.99
2017-03-31T10:36:13.372Z,47.52
2017-03-31T10:37:13.408Z,47.21
2017-03-31T10:38:13.470Z,47.79
2017-03-31T10:39:13.476Z,47.11
2017-03-31T10:40:13.487Z,48.64
2017-03-31T10:41:13.521Z,47.6
2017-03-31T10:42:28.167Z,47.99
2017-03-31T10:43:13.606Z,48.08
2017-03-31T10:44:13.610Z,47.89
2017-03-31T10:45:13.636Z,47.5
2017-03-31T10:46:13.668Z,46.92
2017-03-31T10:47:13.698Z,47.48
2017-03-31T10:48:13.728Z,47.99
2017-03-31T10:49:13.760Z,47.41
2017-03-31T10:50:13.788Z,47.31
2017-03-31T10:51:13.819Z,47.31
2017-03-31T10:52:13.848Z,47.02
2017-03-31T10:53:13.884Z,47.02
2017-03-31T10:54:13.909Z,47.5
2017-03-31T10:55:13.939Z,45.1
2017-03-31T10:56:13.970Z,45.78
2017-03-31T10:57:28.616Z,46.36
2017-03-31T10:58:14.030Z,46.17
2017-03-31T10:59:14.058Z,46.56
2017-03-31T11:00:14.091Z,46.46
2017-03-31T11:01:14.119Z,47.24
2017-03-31T11:02:14.151Z,45.68
2017-03-31T11:03:14.178Z,45.78
2017-03-31T11:04:14.207Z,46.53
2017-03-31T11:05:14.237Z,47.6
2017-03-31T11:06:14.269Z,46.83
2017-03-31T11:07:14.300Z,46.84
2017-03-31T11:08:14.326Z,46.92
2017-03-31T11:10:14.386Z,46.36
2017-03-31T11:11:14.418Z,46.17
2017-03-31T11:12:14.448Z,46.75
2017-03-31T11:13:14.477Z,47.14
2017-03-31T11:14:14.507Z,46.26
2017-03-31T11:15:14.535Z,46.17
2017-03-31T11:16:14.565Z,46.26
2017-03-31T11:17:14.593Z,46.46
2017-03-31T11:18:14.623Z,45.68
2017-03-31T11:19:14.655Z,45.98
2017-03-31T11:20:14.684Z,45.78
2017-03-31T11:23:14.775Z,45.59
2017-03-31T11:24:14.804Z,45.68
2017-03-31T11:25:14.836Z,45.2
2017-03-31T11:27:14.893Z,46.17
2017-03-31T11:28:14.920Z,45.49
2017-03-31T11:29:29.567Z,45.1
2017-03-31T11:30:14.982Z,45.59
2017-03-31T11:31:15.008Z,45.95
2017-03-31T11:32:15.040Z,46.46
2017-03-31T11:33:15.067Z,46.46
2017-03-31T11:34:15.096Z,45.68
2017-03-31T11:35:15.131Z,46.75
2017-03-31T11:36:15.153Z,47.14
2017-03-31T11:38:15.215Z,44.84
2017-03-31T11:39:15.243Z,43.58
2017-03-31T11:40:15.271Z,42.61
2017-03-31T11:41:15.302Z,44.02
2017-03-31T11:43:15.359Z,44.21
2017-03-31T11:44:15.391Z,44.12
2017-03-31T11:45:30.038Z,44.5
2017-03-31T11:46:15.459Z,44.79
2017-03-31T11:47:15.479Z,43.63
2017-03-31T11:48:15.508Z,44.5
2017-03-31T11:49:15.537Z,44.21
2017-03-31T11:50:15.567Z,44.12
2017-03-31T11:51:15.594Z,44.89
2017-03-31T11:52:15.624Z,45.08
2017-03-31T11:53:15.652Z,44.4
2017-03-31T11:54:15.682Z,44.72
2017-03-31T11:55:15.711Z,44.33
2017-03-31T11:57:15.770Z,44.13
2017-03-31T11:58:15.798Z,44.53
2017-03-31T11:59:15.828Z,44.72
2017-03-31T12:00:15.861Z,43.19
2017-03-31T12:01:30.504Z,43.65
2017-03-31T12:02:15.618Z,43.65
2017-03-31T12:03:15.952Z,43.27
2017-03-31T12:04:15.672Z,42.4
2017-03-31T12:05:16.000Z,43.75
2017-03-31T12:06:16.033Z,43.44
2017-03-31T12:07:16.063Z,43.37
2017-03-31T12:08:16.090Z,43.37
2017-03-31T12:09:16.120Z,43.73
2017-03-31T12:10:16.153Z,43.92
2017-03-31T12:11:16.178Z,43.92
2017-03-31T12:12:15.905Z,43.73
2017-03-31T12:13:16.236Z,44.31
2017-03-31T12:15:16.298Z,43.24
2017-03-31T12:16:16.323Z,43.44
2017-03-31T12:17:30.968Z,43.34
2017-03-31T12:18:16.383Z,42.08
2017-03-31T12:19:16.409Z,43.15
2017-03-31T12:20:16.442Z,42.37
2017-03-31T12:21:16.470Z,41.31
2017-03-31T12:22:16.497Z,42.18
2017-03-31T12:23:16.526Z,42.3
2017-03-31T12:24:16.553Z,42.2
2017-03-31T12:25:16.585Z,43.34
2017-03-31T12:26:16.613Z,42.4
2017-03-31T12:27:16.641Z,41.82
2017-03-31T12:28:16.671Z,41.24
2017-03-31T12:29:16.698Z,42.4
2017-03-31T12:31:16.758Z,42.08
2017-03-31T12:32:31.405Z,42
2017-03-31T12:33:16.817Z,42.28
2017-03-31T12:34:16.852Z,42.28
2017-03-31T12:35:16.877Z,41.21
2017-03-31T12:36:16.901Z,41.5
2017-03-31T12:37:16.932Z,41.6
2017-03-31T12:38:16.959Z,41.89
2017-03-31T12:39:16.990Z,41.99
2017-03-31T12:40:17.018Z,41.99
2017-03-31T12:41:17.047Z,42.55
2017-03-31T12:42:17.074Z,40.92
2017-03-31T12:43:17.106Z,41.99
2017-03-31T12:44:17.133Z,41.6
2017-03-31T12:46:17.189Z,41.02
2017-03-31T12:47:17.221Z,41.99
2017-03-31T12:48:17.252Z,40.83
2017-03-31T12:49:17.276Z,41.31
2017-03-31T12:50:17.305Z,41.21
2017-03-31T12:51:17.336Z,42.47
2017-03-31T12:52:17.362Z,42.18
2017-03-31T12:53:17.393Z,42.57
2017-03-31T12:54:17.419Z,41.89
2017-03-31T12:55:17.449Z,41.6
2017-03-31T12:56:17.479Z,42.66
2017-03-31T12:57:17.508Z,42.37
2017-03-31T12:58:17.536Z,41.79
2017-03-31T12:59:17.565Z,42.96
2017-03-31T13:00:17.592Z,43.54
2017-03-31T13:01:17.621Z,42.66
2017-03-31T13:02:17.649Z,43.15
2017-03-31T13:03:17.677Z,42.18
2017-03-31T13:04:32.324Z,42.37
2017-03-31T13:05:17.735Z,41.89
2017-03-31T13:06:17.763Z,41.7
2017-03-31T13:07:17.793Z,40.34
2017-03-31T13:08:17.822Z,41.5
2017-03-31T13:09:17.852Z,41.7
2017-03-31T13:10:17.880Z,40.44
2017-03-31T13:11:17.907Z,40.92
2017-03-31T13:12:17.936Z,40.73
2017-03-31T13:13:17.966Z,42.28
2017-03-31T13:14:17.991Z,42.16
2017-03-31T13:15:18.026Z,42.18
2017-03-31T13:16:18.053Z,42.18
2017-03-31T13:17:18.082Z,41.21
2017-03-31T13:18:17.805Z,42.37
2017-03-31T13:19:18.136Z,42.57
2017-03-31T13:20:32.783Z,41.89
2017-03-31T13:21:18.194Z,41.58
2017-03-31T13:22:18.226Z,41.5
2017-03-31T13:23:18.250Z,41.79
2017-03-31T13:24:18.282Z,41.89
2017-03-31T13:25:18.308Z,42.47
2017-03-31T13:26:18.336Z,42.08
2017-03-31T13:27:18.364Z,41.79
2017-03-31T13:28:18.396Z,42.47
2017-03-31T13:29:18.421Z,42.28
2017-03-31T13:30:18.453Z,41.7
2017-03-31T13:31:18.482Z,42.74
2017-03-31T13:32:18.508Z,42.16
2017-03-31T13:33:18.540Z,43.03
2017-03-31T13:34:18.259Z,42.37
2017-03-31T13:35:18.591Z,43.13
2017-03-31T13:36:33.238Z,43.44
2017-03-31T13:37:18.649Z,42.28
2017-03-31T13:38:18.678Z,41.7
2017-03-31T13:39:18.706Z,42.47
2017-03-31T13:40:18.736Z,42.18
2017-03-31T13:41:18.763Z,43.44
2017-03-31T13:42:18.792Z,42.45
2017-03-31T13:43:18.818Z,42.45
2017-03-31T13:44:18.848Z,42.65